Time;durP1;ratioP1;P1;durP2;ratioP2;P2;SDS_P1;SDS_P2;PMS_P1;PMS_P2;Temp;Humidity;BMP_temperature;BMP_pressure;BME280_temperature;BME280_humidity;BME280_pressure;Samples;Min_cycle;Max_cycle;Signal;HPM_P1;HPM_P2
2023/01/29 00:00:35;;;;;;;25.10;9.70;;;1.70;99.90;;;-0.93;95.20;100785.59;10618125;27;20237;-82
2023/01/29 00:05:38;;;;;;;28.77;11.50;;;1.60;99.90;;;-1.04;94.98;100785.31;10646690;27;20068;-82
2023/01/29 00:10:41;;;;;;;24.77;10.83;;;1.40;99.90;;;-1.18;95.29;100787.78;10648201;27;20090;-82
2023/01/29 00:15:54;;;;;;;29.10;10.33;;;1.30;99.90;;;-1.32;95.51;100790.25;10639883;27;20105;-82
2023/01/29 00:20:57;;;;;;;30.67;12.23;;;1.20;99.90;;;-1.43;95.63;100801.22;10641624;27;20051;-82
2023/01/29 00:26:01;;;;;;;27.03;10.23;;;1.10;99.90;;;-1.58;95.66;100799.38;10639245;27;20059;-82
2023/01/29 00:31:13;;;;;;;29.37;10.67;;;0.90;99.90;;;-1.70;96.05;100799.06;10599590;27;20055;-82
2023/01/29 00:36:19;;;;;;;29.93;10.40;;;0.80;99.90;;;-1.81;96.33;100806.53;10634681;27;20500;-82
2023/01/29 00:46:47;;;;;;;27.67;9.85;;;0.60;99.90;;;-2.06;96.76;100808.66;10644258;27;20411;-82
2023/01/29 00:57:11;;;;;;;27.10;8.85;;;0.40;99.90;;;-2.00;98.34;100806.59;10631899;27;20415;-82
2023/01/29 01:07:38;;;;;;;32.10;11.40;;;0.30;99.90;;;-1.90;98.62;100813.06;10624690;27;20063;-82
2023/01/29 01:12:41;;;;;;;33.07;11.03;;;0.40;99.90;;;-1.86;98.77;100828.53;10626742;27;20066;-82
2023/01/29 01:17:44;;;;;;;29.77;10.80;;;0.40;99.90;;;-1.83;98.82;100829.22;10634253;27;20139;-82
2023/01/29 01:22:47;;;;;;;26.83;11.57;;;0.40;99.90;;;-1.79;99.09;100830.78;10611426;27;20082;-82
2023/01/29 01:27:58;;;;;;;34.27;12.40;;;0.40;99.90;;;-1.74;99.48;100831.41;10601308;27;20096;-82
2023/01/29 01:33:00;;;;;;;38.73;12.53;;;0.50;99.90;;;-1.70;99.39;100834.69;10637326;27;20087;-82
2023/01/29 01:38:03;;;;;;;30.77;11.10;;;0.60;99.90;;;-1.64;99.47;100829.19;10621847;27;20059;-82
2023/01/29 01:43:09;;;;;;;26.27;9.57;;;0.60;99.90;;;-1.60;99.76;100835.94;10630756;27;20536;-82
2023/01/29 01:48:20;;;;;;;27.37;12.43;;;0.70;99.90;;;-1.61;99.68;100818.63;10641147;27;20054;-82
2023/01/29 01:53:29;;;;;;;34.97;12.03;;;0.70;99.90;;;-1.60;99.41;100828.13;10655145;27;20067;-82
2023/01/29 01:58:41;;;;;;;32.43;11.10;;;0.70;99.90;;;-1.59;99.81;100831.56;10651921;27;20087;-82
2023/01/29 02:09:34;;;;;;;31.63;11.80;;;0.80;99.90;;;-1.66;99.62;100829.25;10658013;27;20000;-82
2023/01/29 02:14:39;;;;;;;30.03;11.73;;;0.70;99.90;;;-1.69;99.70;100838.97;10679536;27;20089;-81
2023/01/29 02:20:16;;;;;;;32.77;11.57;;;0.70;99.90;;;-1.70;99.95;100850.34;10659094;27;20065;-81
2023/01/29 02:25:58;;;;;;;28.53;12.00;;;0.60;99.90;;;-1.74;99.86;100848.78;10685517;27;20480;-81
2023/01/29 02:31:26;;;;;;;32.80;10.48;;;0.60;99.90;;;-1.78;100.00;100849.88;10673985;27;20072;-81
2023/01/29 02:37:06;;;;;;;26.93;9.83;;;0.50;99.90;;;-1.84;100.00;100868.41;10639558;27;20058;-81
2023/01/29 02:42:29;;;;;;;27.43;11.57;;;0.40;99.90;;;-1.87;100.00;100856.34;10652665;27;20055;-81
2023/01/29 02:47:48;;;;;;;29.47;11.13;;;0.40;99.90;;;-1.90;100.00;100874.72;10650777;27;20062;-82
2023/01/29 02:53:13;;;;;;;36.50;12.70;;;0.40;99.90;;;-1.90;100.00;100875.56;10654828;27;20059;-81
2023/01/29 02:58:42;;;;;;;24.60;9.27;;;0.40;99.90;;;-1.83;100.00;100877.91;10671133;27;20055;-81
2023/01/29 03:03:52;;;;;;;27.47;9.83;;;0.40;99.90;;;-1.76;100.00;100871.47;10643014;27;20066;-81
2023/01/29 03:09:19;;;;;;;28.23;9.60;;;0.50;99.90;;;-1.65;100.00;100879.63;10653813;27;20063;-81
2023/01/29 03:15:10;;;;;;;32.57;11.40;;;0.70;99.90;;;-1.58;100.00;100881.00;10667511;27;20082;-82
2023/01/29 03:20:07;;;;;;;32.90;10.53;;;0.80;99.90;;;-1.51;100.00;100874.56;10666031;27;20084;-82
2023/01/29 03:36:15;;;;;;;20.87;9.30;;;1.10;99.90;;;-1.39;100.00;100878.34;10685442;27;20157;-82
2023/01/29 03:41:32;;;;;;;26.40;9.60;;;1.10;99.90;;;-1.30;100.00;100884.91;10660771;27;20487;-82
2023/01/29 03:46:49;;;;;;;24.80;9.63;;;1.20;99.90;;;-1.29;100.00;100887.41;10645159;27;20153;-82
2023/01/29 03:52:08;;;;;;;23.23;9.30;;;1.20;99.90;;;-1.24;100.00;100893.25;10680834;27;20090;-82
2023/01/29 03:57:49;;;;;;;29.23;10.07;;;1.20;99.90;;;-1.23;100.00;100886.28;10646950;27;20051;-81
2023/01/29 04:03:15;;;;;;;27.07;9.60;;;1.30;99.90;;;-1.20;100.00;100893.94;10639784;27;20351;-82
2023/01/29 04:08:28;;;;;;;21.17;9.40;;;1.30;99.90;;;-1.18;100.00;100879.06;10683967;27;20127;-82
2023/01/29 04:13:32;;;;;;;22.33;8.27;;;1.30;99.90;;;-1.17;100.00;100889.41;10665626;27;20495;-82
2023/01/29 04:18:36;;;;;;;20.00;8.03;;;1.30;99.90;;;-1.13;100.00;100890.13;10652042;27;20058;-82
2023/01/29 04:23:39;;;;;;;17.83;7.53;;;1.40;99.90;;;-1.11;100.00;100883.06;10657834;27;20419;-81
2023/01/29 04:28:51;;;;;;;19.27;7.83;;;1.40;99.90;;;-1.09;99.70;100891.63;10690048;27;20059;-82
2023/01/29 04:34:31;;;;;;;18.10;7.50;;;1.30;99.90;;;-1.11;99.46;100885.66;10679294;27;20103;-82
2023/01/29 04:39:54;;;;;;;19.60;7.70;;;1.40;99.90;;;-1.09;98.87;100897.69;10676767;27;20488;-82
2023/01/29 04:45:03;;;;;;;18.80;6.97;;;1.40;99.90;;;-1.10;98.39;100903.84;10652315;27;20059;-82
2023/01/29 04:50:31;;;;;;;17.73;7.00;;;1.30;99.90;;;-1.06;98.02;100895.88;10636382;27;20062;-82
2023/01/29 04:56:05;;;;;;;14.60;6.27;;;1.40;99.90;;;-1.06;98.32;100894.09;10639565;27;20142;-82
2023/01/29 05:01:14;;;;;;;14.90;6.70;;;1.40;99.90;;;-1.04;97.72;100902.69;10639113;27;20059;-82
2023/01/29 05:06:20;;;;;;;17.10;7.13;;;1.50;99.90;;;-1.04;97.52;100891.41;10620133;27;20087;-82
2023/01/29 05:11:24;;;;;;;15.00;6.30;;;1.40;99.90;;;-1.04;97.44;100889.66;10633920;27;20063;-82
2023/01/29 05:16:40;;;;;;;17.73;7.50;;;1.40;99.90;;;-1.05;97.02;100874.94;10625433;27;20084;-82
2023/01/29 05:21:48;;;;;;;15.47;6.53;;;1.40;99.90;;;-1.04;96.71;100876.59;10618326;27;20144;-82
2023/01/29 05:32:15;;;;;;;17.73;6.60;;;1.40;99.90;;;-1.06;95.35;100877.63;10610450;27;20059;-82
2023/01/29 05:37:18;;;;;;;15.53;6.20;;;1.40;99.90;;;-1.03;94.94;100893.09;10635612;27;20064;-82
2023/01/29 05:42:21;;;;;;;17.00;7.53;;;1.40;99.90;;;-1.06;94.50;100885.44;10616246;27;20055;-82
2023/01/29 05:47:24;;;;;;;18.50;6.67;;;1.40;99.90;;;-1.08;94.10;100888.97;10617935;27;20058;-82
2023/01/29 05:52:27;;;;;;;20.60;7.90;;;1.30;99.90;;;-1.08;93.97;100906.38;10663639;27;20516;-82
2023/01/29 05:57:30;;;;;;;20.60;7.60;;;1.30;99.90;;;-1.12;93.91;100899.63;10654444;27;20059;-81
2023/01/29 06:02:33;;;;;;;21.40;8.00;;;1.30;99.90;;;-1.12;93.70;100905.69;10649816;27;20141;-83
2023/01/29 06:07:38;;;;;;;21.13;6.97;;;1.30;99.90;;;-1.12;93.37;100907.47;10684045;27;20142;-82
2023/01/29 06:12:45;;;;;;;19.87;8.13;;;1.30;99.90;;;-1.13;93.78;100906.63;10659649;27;20553;-82
2023/01/29 06:17:48;;;;;;;23.13;7.37;;;1.30;99.90;;;-1.12;93.48;100925.72;10657223;27;20141;-82
2023/01/29 06:22:51;;;;;;;18.03;6.87;;;1.30;99.90;;;-1.11;93.73;100927.41;10636675;27;20564;-82
2023/01/29 06:27:54;;;;;;;17.63;7.63;;;1.30;99.90;;;-1.11;93.49;100937.84;10663827;27;20059;-82
2023/01/29 06:33:00;;;;;;;19.17;6.90;;;1.30;99.90;;;-1.07;93.68;100944.59;10636894;27;20191;-82
2023/01/29 06:38:04;;;;;;;14.27;6.47;;;1.30;99.90;;;-1.04;93.33;100954.03;10656545;27;20062;-82
2023/01/29 06:43:07;;;;;;;17.20;6.67;;;1.40;99.90;;;-1.05;93.39;100953.19;10663113;27;20055;-83
2023/01/29 06:48:10;;;;;;;18.90;7.50;;;1.40;99.90;;;-1.01;93.61;100959.09;10636956;27;20059;-83
2023/01/29 06:53:13;;;;;;;20.07;8.53;;;1.40;99.90;;;-0.94;93.08;100956.09;10668659;27;20493;-82
2023/01/29 06:58:17;;;;;;;14.13;7.10;;;1.50;99.90;;;-0.96;92.44;100964.91;10637307;27;20083;-82
2023/01/29 07:03:20;;;;;;;15.70;6.77;;;1.50;99.90;;;-0.90;92.47;100969.81;10632853;27;20109;-82
2023/01/29 07:08:23;;;;;;;17.53;8.00;;;1.50;99.90;;;-0.87;92.65;100954.88;10652566;27;20066;-83
2023/01/29 07:13:26;;;;;;;19.47;7.60;;;1.50;99.90;;;-0.89;92.06;100943.69;10652764;27;20458;-82
2023/01/29 07:18:30;;;;;;;18.70;7.43;;;1.60;99.90;;;-0.84;92.08;100946.91;10641634;27;20055;-88
2023/01/29 07:23:34;;;;;;;16.93;7.73;;;1.60;99.90;;;-0.83;91.79;100943.38;10654218;27;20485;-83
2023/01/29 07:28:39;;;;;;;17.77;6.87;;;1.60;99.90;;;-0.81;91.88;100943.28;10640646;27;20100;-83
2023/01/29 07:33:43;;;;;;;15.43;6.40;;;1.60;99.90;;;-0.80;91.66;100931.94;10676163;27;20090;-80
2023/01/29 07:38:50;;;;;;;16.67;7.63;;;1.70;99.90;;;-0.74;91.60;100926.41;10649842;27;20090;-84
2023/01/29 07:43:53;;;;;;;16.10;7.30;;;1.70;99.90;;;-0.72;91.19;100942.84;10646779;27;20062;-86
2023/01/29 07:48:58;;;;;;;16.90;7.07;;;1.80;99.90;;;-0.68;91.08;100920.84;10647845;27;20116;-86
2023/01/29 07:54:01;;;;;;;12.27;6.13;;;1.80;99.90;;;-0.63;91.20;100924.09;10633648;27;20126;-83
2023/01/29 07:59:04;;;;;;;15.90;7.13;;;1.80;99.90;;;-0.58;91.02;100935.13;10635250;27;20439;-86
2023/01/29 08:04:07;;;;;;;16.67;7.80;;;1.90;99.90;;;-0.57;90.65;100933.38;10655761;27;20066;-87
2023/01/29 08:09:10;;;;;;;17.90;8.03;;;1.90;99.90;;;-0.50;90.51;100929.50;10662415;27;20094;-87
2023/01/29 08:14:14;;;;;;;18.17;7.40;;;2.00;99.90;;;-0.47;90.00;100944.19;10658515;27;20057;-87
2023/01/29 08:19:17;;;;;;;13.40;6.07;;;2.00;99.90;;;-0.49;89.34;100948.63;10652066;27;20086;-87
2023/01/29 08:24:19;;;;;;;14.30;6.23;;;2.00;99.90;;;-0.56;88.71;100948.94;10653012;27;20054;-86
2023/01/29 08:29:22;;;;;;;15.77;6.67;;;1.90;99.90;;;-0.56;88.43;100940.28;10681725;27;20107;-86
2023/01/29 08:34:26;;;;;;;14.60;6.13;;;1.90;99.90;;;-0.59;88.21;100950.88;10657689;27;20450;-85
2023/01/29 08:39:29;;;;;;;10.60;6.40;;;1.80;99.90;;;-0.61;87.86;100958.78;10653800;27;20061;-86
2023/01/29 08:44:33;;;;;;;21.10;7.17;;;1.80;99.90;;;-0.64;87.57;100972.00;10663845;27;20389;-83
2023/01/29 08:49:36;;;;;;;22.07;8.50;;;1.70;99.90;;;-0.64;87.23;100979.81;10660659;27;20059;-80
2023/01/29 08:54:39;;;;;;;19.07;7.50;;;1.70;99.90;;;-0.65;87.36;100983.38;10677321;27;20138;-79
2023/01/29 08:59:42;;;;;;;17.70;6.17;;;1.70;99.90;;;-0.67;87.26;100981.72;10639797;27;20055;-80
2023/01/29 09:04:45;;;;;;;33.77;15.00;;;1.70;99.90;;;-0.64;87.15;100989.44;10640644;27;20061;-80
2023/01/29 09:09:48;;;;;;;13.17;6.43;;;1.70;99.90;;;-0.60;86.38;100989.22;10669293;27;20066;-79
2023/01/29 09:14:51;;;;;;;45.07;17.33;;;1.80;99.90;;;-0.55;86.14;100989.78;10631111;27;20134;-80
2023/01/29 09:19:54;;;;;;;15.07;7.80;;;1.80;99.90;;;-0.47;86.04;100988.59;10637277;27;20490;-80
2023/01/29 09:24:57;;;;;;;14.17;6.60;;;1.90;99.90;;;-0.43;85.28;100990.09;10645948;27;20062;-80
2023/01/29 09:30:00;;;;;;;9.33;5.10;;;2.00;99.90;;;-0.40;84.71;100993.41;10661719;27;20172;-79
2023/01/29 09:35:04;;;;;;;14.83;5.47;;;2.00;99.90;;;-0.32;84.88;101006.06;10638157;27;20137;-82
2023/01/29 09:40:20;;;;;;;11.60;5.37;;;2.10;99.90;;;-0.32;83.85;101008.69;10668185;27;20051;-81
2023/01/29 09:45:27;;;;;;;10.80;4.90;;;2.10;99.90;;;-0.29;83.52;101006.75;10636865;27;20051;-83
2023/01/29 09:50:46;;;;;;;13.77;5.60;;;2.10;99.90;;;-0.25;82.80;100998.75;10663119;27;20115;-83
2023/01/29 09:55:57;;;;;;;10.60;5.00;;;2.20;99.90;;;-0.20;82.69;100999.38;10652634;27;20066;-84
2023/01/29 10:01:21;;;;;;;9.68;5.18;;;2.20;99.90;;;-0.18;81.60;101008.81;10657906;27;20097;-84
2023/01/29 10:06:27;;;;;;;13.10;5.47;;;2.30;99.90;;;-0.18;81.49;101001.00;10654520;27;20500;-80
2023/01/29 10:11:55;;;;;;;9.63;4.77;;;2.20;99.90;;;-0.14;80.66;101012.09;10660499;27;20059;-80
2023/01/29 10:17:05;;;;;;;10.90;4.53;;;2.30;99.90;;;-0.18;79.46;101018.41;10667341;27;20055;-81
2023/01/29 10:22:48;;;;;;;11.90;5.03;;;2.20;99.90;;;-0.19;79.06;101008.88;10685286;27;20063;-80
2023/01/29 10:27:57;;;;;;;10.05;4.40;;;2.20;99.90;;;-0.25;78.15;101006.59;10654621;27;20062;-81
2023/01/29 10:33:04;;;;;;;11.40;4.73;;;2.10;99.90;;;-0.31;77.22;101008.59;10641889;27;20065;-81
2023/01/29 10:38:37;;;;;;;7.37;3.10;;;2.10;99.90;;;-0.33;76.48;101002.59;10659865;27;20577;-81
2023/01/29 10:44:02;;;;;;;7.60;4.13;;;2.00;99.90;;;-0.40;76.28;101003.84;10687358;27;20497;-82
2023/01/29 10:49:40;;;;;;;10.03;4.23;;;2.00;99.90;;;-0.44;75.92;100993.63;10675115;27;20066;-81
2023/01/29 10:54:59;;;;;;;8.23;3.87;;;1.90;99.90;;;-0.42;76.00;100979.59;10658866;27;20084;-81
2023/01/29 11:00:32;;;;;;;8.90;4.47;;;1.90;99.90;;;-0.44;75.51;100963.13;10666303;27;20047;-80
2023/01/29 11:06:17;;;;;;;11.02;4.43;;;1.90;99.90;;;-0.33;75.85;100967.81;10651731;27;20059;-80
2023/01/29 11:11:30;;;;;;;11.00;5.03;;;2.00;99.90;;;-0.18;75.48;100963.53;10658615;27;20069;-81
2023/01/29 11:16:42;;;;;;;9.50;4.83;;;2.10;99.90;;;-0.10;74.88;100937.88;10648770;27;20133;-81
2023/01/29 11:22:00;;;;;;;9.83;5.13;;;2.30;99.90;;;-0.06;73.77;100934.16;10660226;27;20050;-82
2023/01/29 11:27:22;;;;;;;15.37;6.40;;;2.40;99.90;;;-0.01;73.66;100927.75;10658933;27;20059;-82
2023/01/29 11:32:31;;;;;;;7.43;4.07;;;2.40;99.90;;;0.05;72.92;100925.75;10629271;27;20055;-81
2023/01/29 11:37:41;;;;;;;11.67;5.50;;;2.40;98.60;;;-0.05;71.69;100905.34;10632434;27;20063;-82
2023/01/29 11:42:48;;;;;;;6.83;3.43;;;2.40;99.30;;;-0.02;70.97;100886.88;10654562;27;20054;-83
2023/01/29 11:47:55;;;;;;;10.33;4.27;;;2.40;98.90;;;-0.03;70.59;100885.19;10639079;27;20193;-82
2023/01/29 11:53:00;;;;;;;11.57;3.93;;;2.40;98.80;;;0.00;69.72;100889.44;10665868;27;20054;-82
2023/01/29 11:58:15;;;;;;;19.77;7.63;;;2.40;97.70;;;-0.03;69.81;100886.97;10637895;27;20520;-83
2023/01/29 12:03:30;;;;;;;10.43;4.17;;;2.40;98.20;;;-0.05;69.43;100899.28;10680460;27;20085;-82
2023/01/29 12:08:38;;;;;;;7.27;3.10;;;2.40;98.10;;;-0.07;69.55;100882.84;10661460;27;20059;-83
2023/01/29 12:13:44;;;;;;;5.90;2.70;;;2.30;97.60;;;-0.04;69.32;100888.75;10658365;27;20058;-82
2023/01/29 12:19:06;;;;;;;7.57;3.63;;;2.40;97.10;;;-0.10;68.28;100896.06;10664245;27;20094;-83
2023/01/29 12:25:06;;;;;;;8.40;3.60;;;2.40;97.30;;;-0.11;68.46;100884.78;10648685;27;20059;-84
2023/01/29 12:30:50;;;;;;;8.03;3.87;;;2.30;96.80;;;-0.14;68.21;100903.22;10645790;27;20271;-85
2023/01/29 12:36:06;;;;;;;7.50;3.07;;;2.30;96.80;;;-0.19;67.79;100902.63;10678498;27;20059;-81
2023/01/29 12:41:54;;;;;;;7.30;3.27;;;2.20;96.50;;;-0.27;67.62;100887.38;10675639;27;20420;-82
2023/01/29 12:47:01;;;;;;;6.87;3.50;;;2.10;96.70;;;-0.33;67.89;100887.69;10636158;27;20051;-82
2023/01/29 12:52:20;;;;;;;10.73;3.77;;;2.00;96.20;;;-0.42;68.15;100890.81;10638660;27;20488;-84
2023/01/29 12:57:45;;;;;;;6.53;2.73;;;2.00;96.40;;;-0.45;67.80;100880.50;10639711;27;20503;-83
2023/01/29 13:03:52;;;;;;;5.90;3.00;;;2.00;96.30;;;-0.51;68.38;100869.56;10687890;27;20067;-83
2023/01/29 13:09:02;;;;;;;7.13;3.57;;;1.90;96.30;;;-0.53;68.25;100856.59;10663821;27;20153;-82
2023/01/29 13:14:27;;;;;;;12.33;5.03;;;1.90;96.30;;;-0.58;68.32;100846.38;10645902;27;20464;-83
2023/01/29 13:19:46;;;;;;;5.50;3.33;;;1.90;96.70;;;-0.53;68.70;100838.31;10686197;27;20050;-83
2023/01/29 13:24:49;;;;;;;8.67;3.97;;;1.90;96.70;;;-0.66;68.17;100825.06;10662159;27;20819;-82
2023/01/29 13:30:07;;;;;;;9.70;4.70;;;1.80;96.10;;;-0.75;68.57;100832.53;10652882;27;20058;-82
2023/01/29 13:35:14;;;;;;;6.83;3.43;;;1.70;96.50;;;-0.86;68.93;100841.75;10662481;27;20063;-82
2023/01/29 13:40:31;;;;;;;7.73;3.60;;;1.60;96.50;;;-1.01;69.26;100842.56;10653497;27;20432;-83
2023/01/29 13:45:44;;;;;;;6.80;3.73;;;1.40;96.80;;;-1.05;69.56;100827.13;10650374;27;20058;-83
2023/01/29 13:50:50;;;;;;;8.53;3.67;;;1.40;97.30;;;-0.98;70.32;100824.13;10653642;27;20059;-82
2023/01/29 13:55:54;;;;;;;6.50;3.17;;;1.40;97.60;;;-0.96;70.46;100816.19;10651080;27;20098;-82
2023/01/29 14:01:00;;;;;;;6.63;3.47;;;1.50;97.60;;;-0.96;70.77;100837.94;10656928;27;20517;-82
2023/01/29 14:06:04;;;;;;;7.23;3.73;;;1.50;97.80;;;-0.95;71.17;100844.84;10631387;27;20055;-81
2023/01/29 14:11:20;;;;;;;9.60;3.83;;;1.50;98.00;;;-0.98;70.81;100844.16;10682805;27;20055;-81
2023/01/29 14:16:23;;;;;;;7.40;3.20;;;1.40;97.40;;;-1.03;70.54;100846.97;10688332;27;20061;-81
2023/01/29 14:21:33;;;;;;;7.97;3.70;;;1.40;97.70;;;-0.99;71.13;100853.75;10648239;27;20087;-81
2023/01/29 14:26:42;;;;;;;20.13;12.97;;;1.40;97.90;;;-1.01;70.53;100842.56;10656896;27;20419;-81
2023/01/29 14:31:58;;;;;;;6.70;3.97;;;1.40;97.60;;;-1.04;70.63;100847.06;10669458;27;20070;-80
2023/01/29 14:37:13;;;;;;;5.63;3.57;;;1.40;97.60;;;-1.04;70.97;100845.31;10655430;27;20077;-80
2023/01/29 14:42:36;;;;;;;7.80;3.80;;;1.40;97.60;;;-1.09;70.87;100847.28;10665096;27;20091;-80
2023/01/29 14:47:39;;;;;;;5.87;3.70;;;1.30;97.50;;;-1.21;70.82;100842.69;10674761;27;20051;-81
2023/01/29 14:52:45;;;;;;;7.07;3.93;;;1.20;97.70;;;-1.36;70.73;100847.78;10655638;27;20435;-82
2023/01/29 14:57:50;;;;;;;11.33;4.17;;;1.10;97.50;;;-1.45;70.83;100849.97;10650776;27;20162;-82
2023/01/29 15:02:56;;;;;;;7.93;4.30;;;0.90;97.40;;;-1.52;71.42;100848.59;10664098;27;20062;-81
2023/01/29 15:08:28;;;;;;;10.10;4.50;;;0.80;97.60;;;-1.57;71.80;100830.56;10672999;27;20107;-82
2023/01/29 15:13:46;;;;;;;10.07;4.33;;;0.80;98.10;;;-1.59;71.60;100822.00;10633290;27;20090;-82
2023/01/29 15:18:56;;;;;;;8.20;4.37;;;0.70;98.00;;;-1.60;71.87;100824.69;10674008;27;20055;-82
2023/01/29 15:24:06;;;;;;;14.57;6.03;;;0.70;98.10;;;-1.65;72.39;100819.69;10655067;27;20059;-81
2023/01/29 15:29:26;;;;;;;10.00;5.60;;;0.70;98.30;;;-1.68;71.98;100822.44;10646107;27;20095;-83
2023/01/29 15:34:32;;;;;;;9.77;4.83;;;0.60;98.70;;;-1.71;72.93;100822.59;10652777;27;20055;-83
2023/01/29 15:39:42;;;;;;;10.73;4.87;;;0.60;98.70;;;-1.80;72.19;100830.84;10659128;27;20063;-82
2023/01/29 15:44:46;;;;;;;10.40;5.73;;;0.50;98.60;;;-1.91;72.45;100833.97;10648956;27;20150;-82
2023/01/29 15:49:49;;;;;;;12.50;5.40;;;0.30;98.50;;;-1.99;72.75;100831.72;10647746;27;20116;-83
2023/01/29 15:54:53;;;;;;;14.20;7.53;;;0.20;98.80;;;-2.03;73.04;100843.22;10597495;27;20104;-83
2023/01/29 15:59:57;;;;;;;18.80;7.03;;;0.10;99.00;;;-2.08;73.43;100839.97;10608806;27;20428;-82
2023/01/29 16:05:03;;;;;;;14.43;6.87;;;0.10;99.10;;;-2.10;73.58;100835.75;10630607;27;20051;-82
2023/01/29 16:10:26;;;;;;;16.57;6.53;;;0.00;99.50;;;-2.17;73.53;100846.44;10616150;27;20055;-82
2023/01/29 16:15:33;;;;;;;14.20;6.27;;;0.00;99.40;;;-2.21;73.78;100850.13;10624983;27;20051;-82
2023/01/29 16:20:49;;;;;;;56.53;15.73;;;0.00;99.50;;;-2.25;74.27;100847.72;10614499;27;20473;-83
2023/01/29 16:25:52;;;;;;;18.70;8.80;;;-0.10;99.80;;;-2.33;73.97;100855.03;10623858;27;20065;-82
2023/01/29 16:31:00;;;;;;;16.10;6.23;;;-0.10;99.70;;;-2.38;74.93;100862.22;10610569;27;20055;-82
2023/01/29 16:36:23;;;;;;;12.97;6.40;;;-0.20;99.90;;;-2.38;74.79;100872.63;10589774;27;20066;-81
2023/01/29 16:41:37;;;;;;;15.40;7.33;;;-0.20;99.90;;;-2.40;74.31;100874.44;10609496;27;20090;-81
2023/01/29 16:46:50;;;;;;;16.67;8.20;;;-0.20;99.60;;;-2.46;74.14;100876.44;10621699;27;20109;-79
2023/01/29 16:51:55;;;;;;;13.23;5.83;;;-0.20;99.60;;;-2.53;74.54;100880.19;10615109;27;20138;-79
2023/01/29 16:57:00;;;;;;;12.83;6.13;;;-0.30;99.90;;;-2.56;75.18;100882.09;10610020;27;20087;-79
2023/01/29 17:02:16;;;;;;;18.17;8.63;;;-0.30;99.90;;;-2.55;75.85;100882.03;10603444;27;20509;-80
2023/01/29 17:07:21;;;;;;;21.47;9.60;;;-0.30;99.90;;;-2.53;75.69;100880.19;10618369;27;20578;-80
2023/01/29 17:12:26;;;;;;;17.70;8.93;;;-0.30;99.90;;;-2.52;75.86;100881.91;10617693;27;20059;-80
2023/01/29 17:17:34;;;;;;;17.57;8.47;;;-0.30;99.90;;;-2.49;75.89;100870.50;10618548;27;20063;-82
2023/01/29 17:22:38;;;;;;;16.97;6.80;;;-0.20;99.90;;;-2.50;76.52;100861.00;10593934;27;20060;-81
2023/01/29 17:27:43;;;;;;;13.43;5.67;;;-0.20;99.90;;;-2.56;76.46;100856.91;10591443;27;20067;-81
2023/01/29 17:32:46;;;;;;;16.60;7.53;;;-0.30;99.90;;;-2.61;76.54;100845.03;10612420;27;20051;-80
2023/01/29 17:37:49;;;;;;;19.40;8.20;;;-0.40;99.90;;;-2.70;76.49;100847.13;10613057;27;20146;-80
2023/01/29 17:42:52;;;;;;;17.17;8.33;;;-0.40;99.90;;;-2.81;76.87;100846.75;10581686;27;20078;-81
2023/01/29 17:47:55;;;;;;;19.00;9.17;;;-0.50;99.90;;;-2.90;77.05;100831.53;10602930;27;20063;-80
2023/01/29 17:52:58;;;;;;;16.30;7.73;;;-0.60;99.90;;;-2.96;77.09;100834.41;10638329;27;20059;-79
2023/01/29 17:58:01;;;;;;;20.60;9.27;;;-0.70;99.90;;;-3.09;77.60;100818.50;10645926;27;20142;-79
2023/01/29 18:03:04;;;;;;;26.93;10.57;;;-0.80;99.90;;;-3.14;77.67;100822.19;10646511;27;20059;-80
2023/01/29 18:08:29;;;;;;;18.20;7.17;;;-0.90;99.90;;;-3.18;77.86;100836.22;10637374;27;20075;-80
2023/01/29 18:13:34;;;;;;;13.17;6.87;;;-1.00;99.90;;;-3.24;78.03;100819.13;10632336;27;20070;-79
2023/01/29 18:18:39;;;;;;;12.43;6.47;;;-1.00;99.90;;;-3.32;78.10;100818.63;10650975;27;20059;-82
2023/01/29 18:23:42;;;;;;;14.47;7.37;;;-1.10;99.90;;;-3.33;78.70;100806.53;10645876;27;20055;-82
2023/01/29 18:28:45;;;;;;;12.07;6.60;;;-1.10;99.90;;;-3.41;78.74;100811.22;10654211;27;20116;-82
2023/01/29 18:33:48;;;;;;;13.93;6.97;;;-1.20;99.90;;;-3.51;78.82;100805.56;10617437;27;20663;-82
2023/01/29 18:38:51;;;;;;;16.50;7.03;;;-1.30;99.90;;;-3.54;79.20;100801.34;10652654;27;20127;-83
2023/01/29 18:43:54;;;;;;;14.43;6.83;;;-1.30;99.90;;;-3.58;79.39;100815.38;10630497;27;20086;-82
2023/01/29 18:48:58;;;;;;;13.23;6.43;;;-1.40;99.90;;;-3.65;79.56;100800.94;10634794;27;20055;-83
2023/01/29 18:54:01;;;;;;;12.77;6.20;;;-1.40;99.90;;;-3.66;79.80;100806.19;10666417;27;20059;-83
2023/01/29 18:59:04;;;;;;;14.53;7.13;;;-1.40;99.90;;;-3.67;79.99;100804.50;10654470;27;20419;-83
2023/01/29 19:04:08;;;;;;;15.70;7.40;;;-1.50;99.90;;;-3.67;79.85;100807.94;10628132;27;20055;-83
2023/01/29 19:09:11;;;;;;;15.77;7.13;;;-1.50;99.90;;;-3.71;80.21;100806.38;10634081;27;20059;-84
2023/01/29 19:14:15;;;;;;;12.47;5.70;;;-1.50;99.90;;;-3.74;80.25;100796.09;10651984;27;20063;-83
2023/01/29 19:19:18;;;;;;;12.47;6.03;;;-1.50;99.90;;;-3.78;80.48;100799.72;10652150;27;20062;-84
2023/01/29 19:24:22;;;;;;;15.53;6.77;;;-1.60;99.90;;;-3.82;80.83;100795.59;10659048;27;20085;-83
2023/01/29 19:29:25;;;;;;;11.40;5.73;;;-1.60;99.90;;;-3.84;80.90;100798.25;10627770;27;20055;-80
2023/01/29 19:34:28;;;;;;;13.47;6.37;;;-1.60;99.90;;;-3.86;81.10;100797.44;10648651;27;20431;-81
2023/01/29 19:39:32;;;;;;;11.77;5.83;;;-1.70;99.90;;;-3.90;81.41;100787.25;10630396;27;20062;-80
2023/01/29 19:44:37;;;;;;;14.97;7.70;;;-1.70;99.90;;;-3.94;81.25;100781.34;10640087;27;20051;-80
2023/01/29 19:49:40;;;;;;;11.53;5.97;;;-1.70;99.90;;;-3.99;81.34;100788.47;10657453;27;20069;-79
2023/01/29 19:54:45;;;;;;;13.97;6.40;;;-1.80;99.90;;;-3.99;81.70;100801.44;10641881;27;20088;-79
2023/01/29 19:59:48;;;;;;;13.13;5.83;;;-1.80;99.90;;;-4.03;81.65;100798.13;10672966;27;20063;-78
2023/01/29 20:04:51;;;;;;;17.00;7.83;;;-1.80;99.90;;;-4.00;81.92;100806.72;10673676;27;20055;-79
2023/01/29 20:09:54;;;;;;;16.43;7.40;;;-1.80;99.90;;;-4.00;81.86;100796.31;10657672;27;20164;-79
2023/01/29 20:14:57;;;;;;;14.20;6.97;;;-1.70;99.90;;;-4.00;81.76;100801.50;10648663;27;20063;-79
2023/01/29 20:20:00;;;;;;;15.83;7.60;;;-1.70;99.90;;;-4.05;82.18;100784.34;10667443;27;20061;-81
2023/01/29 20:25:05;;;;;;;12.63;6.03;;;-1.80;99.90;;;-4.13;82.21;100773.44;10640246;27;20055;-79
2023/01/29 20:30:09;;;;;;;15.10;6.80;;;-1.80;99.90;;;-4.19;82.39;100778.03;10634527;27;20055;-78
2023/01/29 20:35:12;;;;;;;12.77;6.03;;;-1.80;99.90;;;-4.22;82.35;100772.94;10641274;27;20055;-79
2023/01/29 20:40:16;;;;;;;14.40;6.13;;;-1.90;99.90;;;-4.25;82.69;100760.09;10629025;27;20059;-81
2023/01/29 20:45:20;;;;;;;14.00;6.30;;;-1.90;99.90;;;-4.26;83.09;100767.03;10661803;27;20054;-82
2023/01/29 20:50:23;;;;;;;14.77;6.07;;;-1.90;99.90;;;-4.30;83.35;100773.25;10672513;27;20147;-79
2023/01/29 20:55:30;;;;;;;10.77;5.53;;;-2.00;99.90;;;-4.38;83.45;100773.56;10674963;27;20443;-79
2023/01/29 21:00:33;;;;;;;14.27;6.37;;;-2.00;99.90;;;-4.41;83.74;100771.06;10653285;27;20066;-80
2023/01/29 21:05:36;;;;;;;11.37;6.27;;;-2.00;99.90;;;-4.40;83.66;100784.88;10670890;27;20138;-80
2023/01/29 21:10:39;;;;;;;15.57;6.93;;;-2.00;99.90;;;-4.43;83.82;100798.00;10655517;27;20152;-80
2023/01/29 21:15:45;;;;;;;17.00;7.67;;;-2.00;99.90;;;-4.47;83.95;100814.56;10629184;27;20055;-79
2023/01/29 21:20:49;;;;;;;18.67;7.37;;;-2.00;99.90;;;-4.50;84.01;100817.25;10654863;27;20112;-80
2023/01/29 21:25:52;;;;;;;15.77;7.60;;;-2.10;99.90;;;-4.55;84.21;100808.81;10661181;27;20132;-80
2023/01/29 21:31:11;;;;;;;20.23;7.57;;;-2.10;99.90;;;-4.62;84.47;100798.69;10637115;27;20059;-80
2023/01/29 21:36:14;;;;;;;21.30;8.10;;;-2.20;99.90;;;-4.68;84.86;100806.69;10643350;27;20054;-79
2023/01/29 21:41:17;;;;;;;25.60;9.17;;;-2.20;99.90;;;-4.73;84.80;100803.41;10659974;27;20059;-80
2023/01/29 21:46:20;;;;;;;23.03;9.13;;;-2.30;99.90;;;-4.81;84.99;100804.56;10656990;27;20108;-81
2023/01/29 21:51:23;;;;;;;18.23;7.23;;;-2.30;99.90;;;-4.85;85.31;100809.06;10649482;27;20512;-78